Terminal Aerodrome Forecast
Issued by NWS Central Illinois

Home | Current Version | Previous Version | Text Only | Print | Product List | Glossary On
Versions: 1 2 3 4 5 6 7 8 9 10 11 12 13 14 15 16 17 18 19 20 21 22 23 24 25 26 27 28
000
FTUS43 KILX 250536
TAFPIA
TAF
KPIA 250536Z 2506/2606 25005KT P6SM -RA VCTS SCT015CB BKN050
     FM250800 32005KT P6SM SCT015 BKN120
     FM251000 35005KT 4SM BR SCT015 BKN250
     FM251300 36008KT P6SM SCT040=

USA.gov is the U.S. government's official web portal to all federal, state and local government web resources and services.